Jefferson City, MT (59638)

12:31 PM MDT on September 01, 2015 (GMT -0600)
Jefferson City | | Change Station
CLOSE
Current Station
Personal Weather Station
Location: Jefferson City, MT
Elevation: 4640 ft
Nearby Weather Stations
Active Advisory: Fire Weather Warning Active Notice: Public Information Statement

Elev 4640 ft 46.39 °N, 112.03 °W | Updated 1 minute ago

Clear
Clear
78.6 °F
Feels Like 77 °F
N
0.0
Wind Variable Wind from SSW
Gusts 0.0 mph

Today
High -- | Low -- °F
--% Chance of Precip.
Yesterday
High -- | Low -- °F
Precip. -- in
6:48 AM 8:07 PM
Waning Gibbous, 87% visible
Pressure 29.86 in
Visibility 10.0 miles
Clouds Clear
Heat Index 77 °F
Dew Point 27 °F
Humidity 15%
Rainfall 0.00 in
Snow Depth Not available.
UV 7 out of 12
Pollen 7.90 out of 12
Air Quality Not available.
Flu Activity Not available.
METAR KHLN 011753Z 04006KT 10SM CLR 23/05 A2991 RMK AO2 SLP111 T02330050 10233 20089 58011 $
Pressure 29.86 in
Visibility 10.0 miles
Clouds Clear
Heat Index 77 °F
Dew Point 27 °F
Humidity 15%
Rainfall 0.00 in
Snow Depth Not available.
UV 7 out of 12
Pollen 7.90 out of 12
Air Quality Not available.
Flu Activity Not available.
METAR KHLN 011753Z 04006KT 10SM CLR 23/05 A2991 RMK AO2 SLP111 T02330050 10233 20089 58011 $

10-Day Weather Forecast

×

Almanac

Astronomy

Sep. 01, 2015 Rise Set
Actual Time
Civil Twilight
Nautical Twilight
Astronomical Twilight
Moon
Length of Visible Light
Length of Day
Tomorrow will be .
, % of the Moon is Illuminated

Today's Extremes

State Highs State Lows

Community

WunderPhotos

Upload Photos

1,851,593 photos uploaded!

WunderBlogs® & News

Nearby

Air Quality

  Air Quality AQ Index Pollutant
Not available.

Snow Depth

Station Depth Elevation

Earthquake Activity

City Distance Mag. Time & Date
Minimum magnitude displayed is 2.5.

Coastal Water Temperatures

Place Temperature

Stations

Nearby Weather Stations

Station Location Temp. Windchill Dew Point Humidity Wind Precip. Elev Updated Type
                   
Fire Weather Warning
Statement as of 10:47 AM MDT on September 01, 2015

... Red flag warning in effect from noon to 9 PM MDT Wednesday for
gusty winds and low humidities across the deerlodge/west
Beaverhead... east Beaverhead...

The National Weather Service in Missoula has issued a red flag
warning for gusty winds and low humidities... which is in effect
from noon to 9 PM MDT Wednesday. The Fire Weather Watch is no
longer in effect.

* Winds: southwest 20-25 mph with gusts to 40 mph, especially on
ridgetops and any exposed terrain.

* Minimum humidities: 12-20 percent.

* Timing: winds will begin to develop ahead of an approaching cold
front around noon... peaking in the late afternoon and early
evening when humidity will be lowest.